createdAt,value
2017-12-22T00:00:05.164Z,53.40
2017-12-22T00:02:31.884Z,47.62
2017-12-22T00:04:57.836Z,51.58
2017-12-22T00:07:23.820Z,51.55
2017-12-22T00:09:49.796Z,51.72
2017-12-22T00:12:15.744Z,49.80
2017-12-22T00:14:41.725Z,53.22
2017-12-22T00:17:07.693Z,48.63
2017-12-22T00:19:33.942Z,48.37
2017-12-22T00:21:59.904Z,48.93
2017-12-22T00:24:25.880Z,50.03
2017-12-22T00:26:51.856Z,46.87
2017-12-22T00:29:17.828Z,47.30
2017-12-22T00:31:43.784Z,48.58
2017-12-22T00:34:11.710Z,48.83
2017-12-22T00:36:37.674Z,46.20
2017-12-22T00:39:03.624Z,44.63
2017-12-22T00:41:29.588Z,47.17
2017-12-22T00:43:56.332Z,45.13
2017-12-22T00:46:23.017Z,45.90
2017-12-22T00:48:48.984Z,46.40
2017-12-22T00:51:15.682Z,42.60
2017-12-22T00:53:41.645Z,45.55
2017-12-22T00:56:08.343Z,40.70
2017-12-22T00:58:34.338Z,39.75
2017-12-22T01:01:00.297Z,37.72
2017-12-22T01:03:26.243Z,42.72
2017-12-22T01:05:53.388Z,43.83
2017-12-22T01:08:19.336Z,40.67
2017-12-22T01:10:45.293Z,44.45
2017-12-22T01:13:11.256Z,44.78
2017-12-22T01:15:44.071Z,41.40
2017-12-22T01:18:16.316Z,43.55
2017-12-22T01:20:43.000Z,41.97
2017-12-22T01:23:09.000Z,44.97
2017-12-22T01:25:35.120Z,42.87
2017-12-22T01:28:01.097Z,40.28
2017-12-22T01:30:27.058Z,44.22
2017-12-22T01:32:53.040Z,42.87
2017-12-22T01:35:18.992Z,44.38
2017-12-22T01:37:45.702Z,47.30
2017-12-22T01:40:11.689Z,48.83
2017-12-22T01:42:37.628Z,46.57
2017-12-22T01:45:03.683Z,46.25
2017-12-22T01:47:30.407Z,42.15
2017-12-22T01:49:56.364Z,43.83
2017-12-22T01:52:22.340Z,36.47
2017-12-22T01:54:48.324Z,40.25
2017-12-22T01:57:14.291Z,38.20
2017-12-22T01:59:40.239Z,35.60
2017-12-22T02:02:06.236Z,36.92
2017-12-22T02:04:32.181Z,35.92
2017-12-22T02:06:58.133Z,35.38
2017-12-22T02:09:24.088Z,34.22
2017-12-22T02:11:50.052Z,33.47
2017-12-22T02:14:16.039Z,38.90
2017-12-22T02:16:41.987Z,35.67
2017-12-22T02:19:08.180Z,37.35
2017-12-22T02:21:34.152Z,38.38
2017-12-22T02:24:00.144Z,36.53
2017-12-22T02:26:26.848Z,24.05
2017-12-22T02:28:52.824Z,26.03
2017-12-22T02:31:18.798Z,25.02
2017-12-22T02:33:44.751Z,24.95
2017-12-22T02:36:11.454Z,24.27
2017-12-22T02:38:37.464Z,25.13
2017-12-22T02:41:03.436Z,29.10
2017-12-22T02:43:30.119Z,26.77
2017-12-22T02:45:56.104Z,27.67
2017-12-22T02:48:22.620Z,27.87
2017-12-22T02:50:49.328Z,28.85
2017-12-22T02:53:15.293Z,23.62
2017-12-22T02:55:41.245Z,24.48
2017-12-22T02:58:07.203Z,21.37
2017-12-22T03:00:33.166Z,24.85
2017-12-22T03:02:59.112Z,22.73
2017-12-22T03:05:25.072Z,21.48
2017-12-22T03:07:51.032Z,17.03
2017-12-22T03:10:16.996Z,14.75
2017-12-22T03:12:42.943Z,18.15
2017-12-22T03:15:09.679Z,16.50
2017-12-22T03:17:36.375Z,16.20
2017-12-22T03:20:02.343Z,18.95
2017-12-22T03:22:29.083Z,15.80
2017-12-22T03:24:56.588Z,19.92
2017-12-22T03:27:22.557Z,18.27
2017-12-22T03:29:55.195Z,22.93
2017-12-22T03:32:21.184Z,21.83
2017-12-22T03:34:47.133Z,20.53
2017-12-22T03:37:13.109Z,23.02
2017-12-22T03:39:39.836Z,23.38
2017-12-22T03:42:05.796Z,23.85
2017-12-22T03:44:31.740Z,24.93
2017-12-22T03:46:57.687Z,23.87
2017-12-22T03:49:23.644Z,22.95
2017-12-22T03:51:49.599Z,24.23
2017-12-22T03:54:15.576Z,19.67
2017-12-22T03:56:42.284Z,22.17
2017-12-22T03:59:09.031Z,23.33
2017-12-22T04:01:34.989Z,21.95
2017-12-22T04:04:00.977Z,26.45
2017-12-22T04:06:27.720Z,24.23
2017-12-22T04:08:54.429Z,32.20
2017-12-22T04:11:20.396Z,32.03
2017-12-22T04:13:47.104Z,32.43
2017-12-22T04:16:13.088Z,32.28
2017-12-22T04:18:39.036Z,36.30
2017-12-22T04:21:05.029Z,34.35
2017-12-22T04:23:30.979Z,39.03
2017-12-22T04:25:56.956Z,37.90
2017-12-22T04:28:23.445Z,33.15
2017-12-22T04:30:49.400Z,33.70
2017-12-22T04:33:16.111Z,31.13
2017-12-22T04:35:42.092Z,29.45
2017-12-22T04:38:08.043Z,33.10
2017-12-22T04:40:34.002Z,30.27
2017-12-22T04:43:07.871Z,28.00
2017-12-22T04:45:33.861Z,29.63
2017-12-22T04:47:59.819Z,27.17
2017-12-22T04:50:25.794Z,30.05
2017-12-22T04:52:51.752Z,29.37
2017-12-22T04:55:17.691Z,26.60
2017-12-22T04:57:43.647Z,26.45
2017-12-22T05:00:09.599Z,32.50
2017-12-22T05:02:42.704Z,31.27
2017-12-22T05:05:08.665Z,29.57
2017-12-22T05:07:34.645Z,30.70
2017-12-22T05:10:00.596Z,30.73
2017-12-22T05:12:27.309Z,26.85
2017-12-22T05:14:53.276Z,25.57
2017-12-22T05:17:19.244Z,28.58
2017-12-22T05:19:45.221Z,28.00
2017-12-22T05:22:11.351Z,26.52
2017-12-22T05:24:37.312Z,27.23
2017-12-22T05:27:03.295Z,25.57
2017-12-22T05:29:29.290Z,22.50
2017-12-22T05:31:56.003Z,24.20
2017-12-22T05:34:21.958Z,24.27
2017-12-22T05:36:48.661Z,24.90
2017-12-22T05:39:14.624Z,29.80
2017-12-22T05:41:40.563Z,25.20
2017-12-22T05:44:06.525Z,28.40
2017-12-22T05:46:32.502Z,23.25
2017-12-22T05:48:58.463Z,26.90
2017-12-22T05:51:24.436Z,24.83
2017-12-22T05:53:50.384Z,26.00
2017-12-22T05:56:16.339Z,25.02
2017-12-22T05:58:42.348Z,26.30
2017-12-22T06:01:08.303Z,27.65
2017-12-22T06:03:34.987Z,25.88
2017-12-22T06:06:00.977Z,26.95
2017-12-22T06:08:26.921Z,24.73
2017-12-22T06:10:52.884Z,22.83
2017-12-22T06:13:18.840Z,26.40
2017-12-22T06:15:44.823Z,27.70
2017-12-22T06:18:10.777Z,26.65
2017-12-22T06:20:36.720Z,28.80
2017-12-22T06:23:02.720Z,29.85
2017-12-22T06:25:28.685Z,25.95
2017-12-22T06:27:54.644Z,26.83
2017-12-22T06:30:21.359Z,28.77
2017-12-22T06:32:47.332Z,28.95
2017-12-22T06:35:13.315Z,30.08
2017-12-22T06:37:39.273Z,30.90
2017-12-22T06:40:06.170Z,27.42
2017-12-22T06:42:32.123Z,29.02
2017-12-22T06:44:58.704Z,28.42
2017-12-22T06:47:24.665Z,26.93
2017-12-22T06:49:51.356Z,27.80
2017-12-22T06:52:17.338Z,27.87
2017-12-22T06:54:43.315Z,27.25
2017-12-22T06:57:09.288Z,28.93
2017-12-22T06:59:35.271Z,27.65
2017-12-22T07:02:01.264Z,25.25
2017-12-22T07:04:27.214Z,27.15
2017-12-22T07:06:53.188Z,29.33
2017-12-22T07:09:19.385Z,26.47
2017-12-22T07:11:46.096Z,32.10
2017-12-22T07:14:12.141Z,30.40
2017-12-22T07:16:38.956Z,35.47
2017-12-22T07:19:04.909Z,30.55
2017-12-22T07:21:30.876Z,29.27
2017-12-22T07:23:56.876Z,29.10
2017-12-22T07:26:22.842Z,32.97
2017-12-22T07:28:48.816Z,32.92
2017-12-22T07:31:14.790Z,33.42
2017-12-22T07:33:40.776Z,32.40
2017-12-22T07:36:06.735Z,29.50
2017-12-22T07:38:39.767Z,30.00
2017-12-22T07:41:05.760Z,30.27
2017-12-22T07:43:32.719Z,32.17
2017-12-22T07:45:58.685Z,26.45
2017-12-22T07:48:24.672Z,32.13
2017-12-22T07:50:50.632Z,29.63
2017-12-22T07:53:16.604Z,33.08
2017-12-22T07:55:43.319Z,32.47
2017-12-22T07:58:09.276Z,28.75
2017-12-22T08:00:35.233Z,27.63
2017-12-22T08:03:01.188Z,28.80
2017-12-22T08:05:27.920Z,32.53
2017-12-22T08:07:53.909Z,28.92
2017-12-22T08:10:19.882Z,32.27
2017-12-22T08:12:45.876Z,29.92
2017-12-22T08:15:11.856Z,31.50
2017-12-22T08:17:37.804Z,32.35
2017-12-22T08:20:03.782Z,33.58
2017-12-22T08:22:29.738Z,29.20
2017-12-22T08:24:55.709Z,29.02
2017-12-22T08:27:22.412Z,30.33
2017-12-22T08:29:48.392Z,29.17
2017-12-22T08:32:14.336Z,26.33
2017-12-22T08:34:40.502Z,24.63
2017-12-22T08:37:07.183Z,29.00
2017-12-22T08:39:33.149Z,31.23
2017-12-22T08:41:59.136Z,28.83
2017-12-22T08:44:25.093Z,29.57
2017-12-22T08:46:51.832Z,27.23
2017-12-22T08:49:19.316Z,26.52
2017-12-22T08:51:46.035Z,24.60
2017-12-22T08:54:12.022Z,26.00
2017-12-22T08:56:37.976Z,26.73
2017-12-22T08:59:03.944Z,27.13
2017-12-22T09:01:29.896Z,26.60
2017-12-22T09:03:55.876Z,25.35
2017-12-22T09:06:21.838Z,26.52
2017-12-22T09:08:47.790Z,26.80
2017-12-22T09:11:14.504Z,27.90
2017-12-22T09:13:40.507Z,28.15
2017-12-22T09:16:06.471Z,23.87
2017-12-22T09:18:32.459Z,23.60
2017-12-22T09:20:58.420Z,25.65
2017-12-22T09:23:25.135Z,27.35
2017-12-22T09:25:51.516Z,25.67
2017-12-22T09:28:18.196Z,24.95
2017-12-22T09:30:44.155Z,27.75
2017-12-22T09:33:11.089Z,26.75
2017-12-22T09:35:37.800Z,31.07
2017-12-22T09:38:03.747Z,30.88
2017-12-22T09:40:30.484Z,28.48
2017-12-22T09:42:57.172Z,25.48
2017-12-22T09:45:23.152Z,32.35
2017-12-22T09:48:30.460Z,28.85
2017-12-22T09:50:56.412Z,32.70
2017-12-22T09:53:22.385Z,33.00
2017-12-22T09:55:49.299Z,35.73
2017-12-22T09:58:15.273Z,32.90
2017-12-22T10:00:41.236Z,34.10
2017-12-22T10:03:14.132Z,36.95
2017-12-22T10:05:40.072Z,40.70
2017-12-22T10:08:06.777Z,45.22
2017-12-22T10:10:32.724Z,39.37
2017-12-22T10:12:59.444Z,43.28
2017-12-22T10:15:25.401Z,39.77
2017-12-22T10:17:51.356Z,36.72
2017-12-22T10:20:17.319Z,37.20
2017-12-22T10:22:44.026Z,44.30
2017-12-22T10:25:09.986Z,41.50
2017-12-22T10:27:36.722Z,41.88
2017-12-22T10:30:04.201Z,38.00
2017-12-22T10:32:37.252Z,42.17
2017-12-22T10:35:03.225Z,38.65
2017-12-22T10:37:29.186Z,37.47
2017-12-22T10:39:55.336Z,37.97
2017-12-22T10:42:22.128Z,43.55
2017-12-22T10:44:48.079Z,37.13
2017-12-22T10:47:14.043Z,35.20
2017-12-22T10:49:39.996Z,41.90
2017-12-22T10:52:05.944Z,35.28
2017-12-22T10:54:31.988Z,40.85
2017-12-22T10:56:57.936Z,40.15
2017-12-22T10:59:23.926Z,33.70
2017-12-22T11:01:50.656Z,36.03
2017-12-22T11:04:18.104Z,30.98
2017-12-22T11:06:44.078Z,33.05
2017-12-22T11:09:10.255Z,31.40
2017-12-22T11:11:36.215Z,35.13
2017-12-22T11:14:02.175Z,30.58
2017-12-22T11:16:28.148Z,29.55
2017-12-22T11:18:54.870Z,30.45
2017-12-22T11:21:21.587Z,27.62
2017-12-22T11:23:47.720Z,23.20
2017-12-22T11:26:13.672Z,25.15
2017-12-22T11:28:39.669Z,23.58
2017-12-22T11:31:05.632Z,24.13
2017-12-22T11:33:31.588Z,21.45
2017-12-22T11:35:57.549Z,24.17
2017-12-22T11:38:24.258Z,23.38
2017-12-22T11:40:50.212Z,24.47
2017-12-22T11:43:16.935Z,24.00
2017-12-22T11:45:43.668Z,23.75
2017-12-22T11:48:10.340Z,27.73
2017-12-22T11:50:36.332Z,29.52
2017-12-22T11:53:03.072Z,23.93
2017-12-22T11:55:36.628Z,22.05
2017-12-22T11:58:02.615Z,24.70
2017-12-22T12:00:28.607Z,27.03
2017-12-22T12:02:54.586Z,22.85
2017-12-22T12:05:20.577Z,26.20
2017-12-22T12:07:47.300Z,21.25
2017-12-22T12:10:14.056Z,20.88
2017-12-22T12:12:40.056Z,19.10
2017-12-22T12:15:06.029Z,24.47
2017-12-22T12:17:31.987Z,19.85
2017-12-22T12:19:57.936Z,19.95
2017-12-22T12:22:24.636Z,21.70
2017-12-22T12:24:50.611Z,20.10
2017-12-22T12:27:16.565Z,20.40
2017-12-22T12:29:42.556Z,23.73
2017-12-22T12:32:08.533Z,25.85
2017-12-22T12:34:34.504Z,20.70
2017-12-22T12:37:01.712Z,28.93
2017-12-22T12:39:27.700Z,21.40
2017-12-22T12:41:53.685Z,21.55
2017-12-22T12:44:19.661Z,22.27
2017-12-22T12:46:45.622Z,25.08
2017-12-22T12:49:11.596Z,21.92
2017-12-22T12:51:37.587Z,20.48
2017-12-22T12:54:03.549Z,18.15
2017-12-22T12:56:29.512Z,24.70
2017-12-22T12:58:55.475Z,27.58
2017-12-22T13:01:21.460Z,22.40
2017-12-22T13:03:47.453Z,20.98
2017-12-22T13:06:14.164Z,22.30
2017-12-22T13:08:40.124Z,26.98
2017-12-22T13:11:06.944Z,26.50
2017-12-22T13:13:32.908Z,22.92
2017-12-22T13:15:58.874Z,24.08
2017-12-22T13:18:25.014Z,27.15
2017-12-22T13:20:52.452Z,22.92
2017-12-22T13:23:18.428Z,27.67
2017-12-22T13:25:44.428Z,23.70
2017-12-22T13:28:11.142Z,20.85
2017-12-22T13:30:37.105Z,24.93
2017-12-22T13:33:03.084Z,26.73
2017-12-22T13:35:29.052Z,24.40
2017-12-22T13:37:54.996Z,23.30
2017-12-22T13:40:21.257Z,26.35
2017-12-22T13:42:47.228Z,20.12
2017-12-22T13:45:13.187Z,27.95
2017-12-22T13:47:39.528Z,21.90
2017-12-22T13:50:05.700Z,23.02
2017-12-22T13:52:31.682Z,22.37
2017-12-22T13:54:57.674Z,20.92
2017-12-22T13:57:23.652Z,18.70
2017-12-22T13:59:49.620Z,20.98
2017-12-22T14:02:15.995Z,20.12
2017-12-22T14:04:41.976Z,22.40
2017-12-22T14:07:07.932Z,22.63
2017-12-22T14:09:34.651Z,18.48
2017-12-22T14:12:00.616Z,21.50
2017-12-22T14:14:26.581Z,22.67
2017-12-22T14:16:52.573Z,23.17
2017-12-22T14:19:18.602Z,18.67
2017-12-22T14:21:45.280Z,22.37
2017-12-22T14:24:11.994Z,21.37
2017-12-22T14:26:37.976Z,21.87
2017-12-22T14:29:03.950Z,21.73
2017-12-22T14:31:29.902Z,17.03
2017-12-22T14:33:56.928Z,18.30
2017-12-22T14:36:22.892Z,20.92
2017-12-22T14:38:49.601Z,17.73
2017-12-22T14:41:16.335Z,25.30
2017-12-22T14:43:43.027Z,19.27
2017-12-22T14:46:08.999Z,21.10
2017-12-22T14:48:35.712Z,19.12
2017-12-22T14:51:01.676Z,21.25
2017-12-22T14:53:27.633Z,21.73
2017-12-22T14:55:53.624Z,19.70
2017-12-22T14:58:19.589Z,23.30
2017-12-22T15:00:45.595Z,19.90
2017-12-22T15:03:11.583Z,23.58
2017-12-22T15:05:37.558Z,23.20
2017-12-22T15:08:03.919Z,22.85
2017-12-22T15:10:30.634Z,27.77
2017-12-22T15:12:56.583Z,17.62
2017-12-22T15:15:23.312Z,16.42
2017-12-22T15:17:50.021Z,25.20
2017-12-22T15:20:16.016Z,24.42
2017-12-22T15:22:42.300Z,24.53
2017-12-22T15:25:08.253Z,23.23
2017-12-22T15:27:34.228Z,26.92
2017-12-22T15:30:00.470Z,32.60
2017-12-22T15:32:27.167Z,32.05
2017-12-22T15:34:53.175Z,23.90
2017-12-22T15:37:19.152Z,28.83
2017-12-22T15:39:45.868Z,22.35
2017-12-22T15:42:11.875Z,23.65
2017-12-22T15:44:37.867Z,98.60
2017-12-22T15:47:10.704Z,136.45
2017-12-22T15:49:36.732Z,80.45
2017-12-22T15:52:02.713Z,57.90
2017-12-22T15:54:28.663Z,25.58
2017-12-22T15:56:54.612Z,21.87
2017-12-22T15:59:21.332Z,28.80
2017-12-22T16:01:47.284Z,24.27
2017-12-22T16:04:13.243Z,24.25
2017-12-22T16:06:39.408Z,23.10
2017-12-22T16:09:05.364Z,26.37
2017-12-22T16:11:31.332Z,25.67
2017-12-22T16:13:57.326Z,20.53
2017-12-22T16:16:23.611Z,25.70
2017-12-22T16:18:50.328Z,21.05
2017-12-22T16:21:16.309Z,30.23
2017-12-22T16:23:42.275Z,20.60
2017-12-22T16:26:08.231Z,20.60
2017-12-22T16:28:34.216Z,22.40
2017-12-22T16:31:00.180Z,24.33
2017-12-22T16:33:26.147Z,22.80
2017-12-22T16:35:52.132Z,24.67
2017-12-22T16:38:18.103Z,23.85
2017-12-22T16:40:44.058Z,23.80
2017-12-22T16:43:10.024Z,23.20
2017-12-22T16:45:35.972Z,20.37
2017-12-22T16:48:02.704Z,26.35
2017-12-22T16:50:28.670Z,22.67
2017-12-22T16:52:54.629Z,25.50
2017-12-22T16:55:20.597Z,24.20
2017-12-22T16:57:47.313Z,25.30
2017-12-22T17:00:13.287Z,24.90
2017-12-22T17:02:39.267Z,20.73
2017-12-22T17:05:05.954Z,26.12
2017-12-22T17:07:31.928Z,26.80
2017-12-22T17:09:58.632Z,23.70
2017-12-22T17:12:24.588Z,23.48
2017-12-22T17:14:51.267Z,32.33
2017-12-22T17:17:17.239Z,28.02
2017-12-22T17:19:43.960Z,26.90
2017-12-22T17:22:09.928Z,23.73
2017-12-22T17:24:35.907Z,27.17
2017-12-22T17:27:01.868Z,27.45
2017-12-22T17:29:27.861Z,31.27
2017-12-22T17:31:54.552Z,32.13
2017-12-22T17:34:20.511Z,28.92
2017-12-22T17:36:46.833Z,30.80
2017-12-22T17:39:12.795Z,24.50
2017-12-22T17:41:38.752Z,24.02
2017-12-22T17:44:04.722Z,29.20
2017-12-22T17:46:31.415Z,27.75
2017-12-22T17:49:04.478Z,28.20
2017-12-22T17:51:30.431Z,29.40
2017-12-22T17:53:56.402Z,29.27
2017-12-22T17:56:22.655Z,28.38
2017-12-22T17:58:48.626Z,28.20
2017-12-22T18:01:15.336Z,30.53
2017-12-22T18:03:41.309Z,31.12
2017-12-22T18:06:07.268Z,24.20
2017-12-22T18:08:33.251Z,24.48
2017-12-22T18:10:59.209Z,29.17
2017-12-22T18:13:25.179Z,26.67
2017-12-22T18:15:51.889Z,27.58
2017-12-22T18:18:18.018Z,29.10
2017-12-22T18:20:43.992Z,27.02
2017-12-22T18:23:09.944Z,25.17
2017-12-22T18:25:35.936Z,30.77
2017-12-22T18:28:01.926Z,31.50
2017-12-22T18:30:28.624Z,31.05
2017-12-22T18:32:54.584Z,30.83
2017-12-22T18:35:21.612Z,26.95
2017-12-22T18:37:47.653Z,33.40
2017-12-22T18:40:14.432Z,28.43
2017-12-22T18:42:40.414Z,35.05
2017-12-22T18:45:07.185Z,33.67
2017-12-22T18:47:33.171Z,27.62
2017-12-22T18:50:00.213Z,32.92
2017-12-22T18:52:26.172Z,30.20
2017-12-22T18:54:52.136Z,43.97
2017-12-22T18:57:18.093Z,33.03
2017-12-22T18:59:45.754Z,29.80
2017-12-22T19:02:12.459Z,28.23
2017-12-22T19:04:38.454Z,27.03
2017-12-22T19:07:04.428Z,25.65
2017-12-22T19:09:31.144Z,29.12
2017-12-22T19:11:57.112Z,25.20
2017-12-22T19:14:23.085Z,32.17
2017-12-22T19:16:50.525Z,33.78
2017-12-22T19:19:16.852Z,25.33
2017-12-22T19:21:42.834Z,28.25
2017-12-22T19:24:08.800Z,30.15
2017-12-22T19:26:34.759Z,25.00
2017-12-22T19:29:01.453Z,32.70
2017-12-22T19:31:34.302Z,25.05
2017-12-22T19:34:00.296Z,29.35
2017-12-22T19:36:33.330Z,25.73
2017-12-22T19:38:59.520Z,29.42
2017-12-22T19:41:26.236Z,30.37
2017-12-22T19:43:52.201Z,29.20
2017-12-22T19:46:18.403Z,33.05
2017-12-22T19:48:45.263Z,31.23
2017-12-22T19:51:11.225Z,32.78
2017-12-22T19:53:37.232Z,30.33
2017-12-22T19:56:03.196Z,30.30
2017-12-22T19:58:29.169Z,28.45
2017-12-22T20:00:55.516Z,29.33
2017-12-22T20:03:26.400Z,32.57
2017-12-22T20:06:00.113Z,35.65
2017-12-22T20:08:26.812Z,30.27
2017-12-22T20:10:52.768Z,35.67
2017-12-22T20:13:19.514Z,30.42
2017-12-22T20:15:45.596Z,31.97
2017-12-22T20:18:11.571Z,33.17
2017-12-22T20:20:37.560Z,34.65
2017-12-22T20:23:04.308Z,35.63
2017-12-22T20:25:31.012Z,33.13
2017-12-22T20:27:56.968Z,37.42
2017-12-22T20:30:23.688Z,39.42
2017-12-22T20:32:49.654Z,35.58
2017-12-22T20:35:15.604Z,38.17
2017-12-22T20:37:41.594Z,101.32
2017-12-22T20:40:07.564Z,34.50
2017-12-22T20:42:33.518Z,36.90
2017-12-22T20:45:00.260Z,44.83
2017-12-22T20:47:26.329Z,37.38
2017-12-22T20:49:52.315Z,34.72
2017-12-22T20:52:18.308Z,37.25
2017-12-22T20:54:44.261Z,39.55
2017-12-22T20:57:17.302Z,38.65
2017-12-22T20:59:43.539Z,39.93
2017-12-22T21:02:10.980Z,41.28
2017-12-22T21:04:36.948Z,39.97
2017-12-22T21:07:03.252Z,37.92
2017-12-22T21:09:29.989Z,37.90
2017-12-22T21:11:56.704Z,38.47
2017-12-22T21:14:22.681Z,37.15
2017-12-22T21:16:48.638Z,36.35
2017-12-22T21:19:14.644Z,41.10
2017-12-22T21:21:40.624Z,38.03
2017-12-22T21:24:07.403Z,39.95
2017-12-22T21:26:33.397Z,42.43
2017-12-22T21:28:59.496Z,40.70
2017-12-22T21:31:25.455Z,43.22
2017-12-22T21:33:51.486Z,41.33
2017-12-22T21:36:17.477Z,39.80
2017-12-22T21:38:44.188Z,39.65
2017-12-22T21:41:10.150Z,40.95
2017-12-22T21:43:36.131Z,40.13
2017-12-22T21:46:02.075Z,37.05
2017-12-22T21:48:28.764Z,38.83
2017-12-22T21:50:54.924Z,43.60
2017-12-22T21:53:20.886Z,38.97
2017-12-22T21:55:46.841Z,38.15
2017-12-22T21:58:12.829Z,48.05
2017-12-22T22:00:38.777Z,160.40
2017-12-22T22:03:04.744Z,84.20
2017-12-22T22:05:31.464Z,37.33
2017-12-22T22:07:57.433Z,40.60
2017-12-22T22:10:23.480Z,39.97
2017-12-22T22:12:49.572Z,36.03
2017-12-22T22:15:15.540Z,43.85
2017-12-22T22:17:41.499Z,37.40
2017-12-22T22:20:08.430Z,40.30
2017-12-22T22:22:35.129Z,41.17
2017-12-22T22:25:01.088Z,36.55
2017-12-22T22:27:27.068Z,37.73
2017-12-22T22:29:53.021Z,38.88
2017-12-22T22:32:18.980Z,36.25
2017-12-22T22:34:44.969Z,34.80
2017-12-22T22:37:11.680Z,39.28
2017-12-22T22:39:37.660Z,37.92
2017-12-22T22:42:03.620Z,42.67
2017-12-22T22:44:29.584Z,38.03
2017-12-22T22:46:56.281Z,37.60
2017-12-22T22:49:22.279Z,36.65
2017-12-22T22:51:48.224Z,39.35
2017-12-22T22:54:14.184Z,36.22
2017-12-22T22:56:40.904Z,31.60
2017-12-22T22:59:06.864Z,35.10
2017-12-22T23:01:32.855Z,33.50
2017-12-22T23:03:58.810Z,36.87
2017-12-22T23:06:25.083Z,37.88
2017-12-22T23:08:51.043Z,37.67
2017-12-22T23:11:17.778Z,34.00
2017-12-22T23:13:44.497Z,32.55
2017-12-22T23:16:11.223Z,35.00
2017-12-22T23:18:37.200Z,34.10
2017-12-22T23:21:03.167Z,36.70
2017-12-22T23:23:29.149Z,36.83
2017-12-22T23:25:55.104Z,35.10
2017-12-22T23:28:21.136Z,37.63
2017-12-22T23:30:47.108Z,40.13
2017-12-22T23:33:13.059Z,38.88
2017-12-22T23:35:39.040Z,40.72
2017-12-22T23:38:04.999Z,38.50
2017-12-22T23:40:30.965Z,38.60
2017-12-22T23:42:57.676Z,40.23
2017-12-22T23:45:23.641Z,40.92
2017-12-22T23:47:49.592Z,36.57
2017-12-22T23:50:15.571Z,33.25
2017-12-22T23:52:42.253Z,35.40
2017-12-22T23:55:08.211Z,34.60
2017-12-22T23:57:34.200Z,33.43
